Rosendale, Wisconsin
Current Conditions -  °F | °C
As of 7:53 AM on Monday 26 Jan 2015 (Local Time) from KFLD Reporting Station
Overcast Overcast  
Wind Chill: 16°   Ceiling: 7000
Heat Index: 16°   Visibility: 10mi
Dew Point: 10°   Wind: 3mph
Humidity: 77%   Direction: 180°S
Pressure: 29.92"   Gusts: NA
Location:  43.81°N, 88.67°W
Report Text: KFLD 261353Z AUTO 18003KT 10SM BKN070 OVC100 M09/M12 A2992 RMK AO2 SLP147 T10891122
Loading
Personal Weather Stations






























Interactive Weather Map New forecast layout! Learn more

10-Day Weather Forecast

Advertisements
Track Severe Weather on mobile